Terminal Aerodrome Forecast
Issued by NWS

Home | Current Version | Previous Version | Text Only | Print | Product List | Glossary On
Versions: 1 2 3 4 5 6 7 8 9 10 11 12 13 14 15 16 17 18 19 20 21 22 23 24 25 26 27 28 29 30 31 32
000
FTUS43 KDTX 042324
TAFPTK
TAF
KPTK 042324Z 0500/0524 13005KT 1SM -SN BR OVC008
     FM050100 14005KT 1/2SM SN FG OVC003
     FM050300 16005KT 1SM -SN BR OVC005
     FM050500 22004KT 3SM BR OVC004
     FM050700 26009KT P6SM OVC010
     FM051400 25010KT P6SM OVC022=

USA.gov is the U.S. government's official web portal to all federal, state and local government web resources and services.